createdAt,value
2019-01-20T00:01:21.038Z,29.70
2019-01-20T00:03:54.106Z,29.60
2019-01-20T00:06:21.138Z,29.30
2019-01-20T00:08:48.231Z,29.20
2019-01-20T00:11:16.739Z,30.00
2019-01-20T00:13:45.165Z,30.00
2019-01-20T00:16:18.266Z,30.00
2019-01-20T00:18:45.278Z,30.10
2019-01-20T00:21:12.410Z,29.90
2019-01-20T00:23:39.779Z,30.40
2019-01-20T00:26:06.822Z,30.00
2019-01-20T00:28:35.092Z,30.70
2019-01-20T00:31:03.292Z,31.30
2019-01-20T00:33:31.690Z,31.50
2019-01-20T00:36:04.723Z,31.70
2019-01-20T00:38:31.769Z,30.80
2019-01-20T00:40:58.814Z,31.20
2019-01-20T00:43:26.668Z,31.50
2019-01-20T00:45:54.001Z,31.00
2019-01-20T00:48:22.450Z,30.20
2019-01-20T00:50:54.006Z,31.30
2019-01-20T00:53:21.574Z,30.80
2019-01-20T00:55:49.626Z,30.50
2019-01-20T00:58:18.122Z,32.30
2019-01-20T01:00:45.786Z,32.30
2019-01-20T01:03:12.992Z,32.90
2019-01-20T01:05:40.889Z,32.30
2019-01-20T01:08:11.001Z,32.20
2019-01-20T01:10:39.529Z,33.00
2019-01-20T01:13:08.931Z,32.20
2019-01-20T01:15:37.532Z,33.50
2019-01-20T01:18:06.151Z,32.30
2019-01-20T01:20:33.369Z,32.10
2019-01-20T01:23:01.940Z,31.30
2019-01-20T01:25:30.105Z,31.70
2019-01-20T01:27:58.702Z,31.30
2019-01-20T01:30:27.302Z,31.70
2019-01-20T01:32:55.973Z,31.20
2019-01-20T01:35:24.507Z,36.30
2019-01-20T01:37:52.587Z,34.40
2019-01-20T01:40:20.930Z,34.40
2019-01-20T01:42:49.053Z,33.50
2019-01-20T01:45:18.471Z,32.50
2019-01-20T01:47:47.166Z,33.90
2019-01-20T01:50:17.121Z,33.80
2019-01-20T01:52:45.386Z,34.80
2019-01-20T01:55:13.721Z,33.40
2019-01-20T01:57:42.273Z,35.10
2019-01-20T02:00:21.102Z,34.30
2019-01-20T02:02:49.222Z,33.70
2019-01-20T02:05:17.943Z,33.10
2019-01-20T02:07:46.074Z,32.50
2019-01-20T02:10:19.451Z,33.10
2019-01-20T02:12:47.258Z,32.40
2019-01-20T02:15:15.850Z,31.90
2019-01-20T02:17:44.065Z,32.60
2019-01-20T02:20:16.630Z,32.20
2019-01-20T02:22:44.037Z,31.90
2019-01-20T02:25:12.062Z,32.10
2019-01-20T02:27:39.094Z,31.80
2019-01-20T02:30:19.405Z,31.70
2019-01-20T02:32:46.792Z,31.80
2019-01-20T02:35:14.118Z,31.80
2019-01-20T02:37:41.051Z,31.80
2019-01-20T02:40:11.993Z,30.90
2019-01-20T02:42:39.152Z,30.30
2019-01-20T02:45:07.668Z,30.40
2019-01-20T02:47:34.658Z,31.20
2019-01-20T02:50:02.118Z,30.80
2019-01-20T02:52:30.043Z,31.00
2019-01-20T02:54:57.942Z,33.00
2019-01-20T02:57:25.882Z,33.70
2019-01-20T02:59:53.980Z,32.80
2019-01-20T03:02:22.058Z,32.30
2019-01-20T03:04:51.637Z,32.20
2019-01-20T03:07:20.255Z,31.80
2019-01-20T03:09:48.662Z,32.00
2019-01-20T03:12:17.933Z,31.50
2019-01-20T03:14:44.843Z,31.50
2019-01-20T03:17:12.770Z,33.20
2019-01-20T03:19:40.806Z,33.30
2019-01-20T03:22:08.976Z,32.20
2019-01-20T03:24:37.027Z,31.80
2019-01-20T03:27:05.131Z,31.90
2019-01-20T03:29:33.348Z,32.20
2019-01-20T03:32:04.355Z,31.50
2019-01-20T03:34:31.254Z,31.40
2019-01-20T03:36:58.287Z,31.80
2019-01-20T03:39:26.202Z,32.70
2019-01-20T03:41:54.510Z,32.60
2019-01-20T03:44:23.406Z,32.60
2019-01-20T03:46:51.876Z,32.40
2019-01-20T03:49:19.086Z,33.30
2019-01-20T03:51:50.956Z,32.00
2019-01-20T03:54:18.030Z,32.70
2019-01-20T03:56:45.054Z,31.50
2019-01-20T03:59:12.186Z,31.50
2019-01-20T04:01:40.357Z,31.40
2019-01-20T04:04:08.358Z,31.90
2019-01-20T04:06:36.690Z,31.50
2019-01-20T04:09:06.649Z,31.30
2019-01-20T04:11:35.214Z,31.30
2019-01-20T04:14:04.084Z,31.60
2019-01-20T04:16:32.223Z,31.40
2019-01-20T04:19:00.386Z,31.50
2019-01-20T04:21:28.409Z,31.20
2019-01-20T04:23:57.886Z,30.80
2019-01-20T04:26:25.062Z,31.30
2019-01-20T04:28:53.162Z,31.40
2019-01-20T04:31:21.226Z,31.60
2019-01-20T04:33:49.617Z,31.20
2019-01-20T04:36:17.863Z,31.80
2019-01-20T04:38:46.051Z,31.50
2019-01-20T04:41:14.231Z,31.20
2019-01-20T04:43:42.388Z,31.20
2019-01-20T04:46:10.489Z,31.20
2019-01-20T04:48:38.726Z,31.10
2019-01-20T04:51:06.910Z,30.50
2019-01-20T04:53:40.301Z,31.10
2019-01-20T04:56:07.779Z,30.40
2019-01-20T04:58:34.701Z,31.10
2019-01-20T05:01:01.825Z,30.90
2019-01-20T05:03:28.763Z,30.60
2019-01-20T05:05:56.979Z,30.20
2019-01-20T05:08:24.933Z,30.20
2019-01-20T05:10:53.006Z,29.90
2019-01-20T05:13:21.031Z,29.80
2019-01-20T05:15:49.099Z,29.60
2019-01-20T05:18:17.395Z,31.60
2019-01-20T05:20:45.317Z,32.20
2019-01-20T05:23:13.442Z,31.00
2019-01-20T05:25:44.107Z,31.60
2019-01-20T05:28:11.307Z,32.30
2019-01-20T05:30:39.437Z,31.30
2019-01-20T05:33:08.090Z,30.90
2019-01-20T05:35:35.024Z,30.90
2019-01-20T05:38:07.611Z,30.50
2019-01-20T05:40:34.663Z,30.90
2019-01-20T05:43:01.726Z,31.40
2019-01-20T05:45:28.651Z,30.90
2019-01-20T05:47:56.791Z,30.90
2019-01-20T05:50:24.894Z,30.60
2019-01-20T05:52:52.958Z,30.20
2019-01-20T05:55:21.428Z,30.00
2019-01-20T05:57:49.565Z,29.80
2019-01-20T06:00:23.046Z,30.00
2019-01-20T06:02:51.602Z,29.60
2019-01-20T06:05:19.812Z,29.50
2019-01-20T06:07:48.374Z,29.50
2019-01-20T06:10:16.502Z,30.00
2019-01-20T06:12:44.942Z,30.70
2019-01-20T06:15:14.897Z,30.50
2019-01-20T06:17:43.378Z,30.10
2019-01-20T06:20:11.717Z,29.90
2019-01-20T06:22:40.207Z,29.90
2019-01-20T06:25:08.629Z,29.90
2019-01-20T06:27:37.126Z,30.60
2019-01-20T06:30:14.663Z,30.20
2019-01-20T06:32:41.986Z,30.00
2019-01-20T06:35:10.123Z,29.70
2019-01-20T06:37:38.266Z,29.50
2019-01-20T06:40:06.755Z,29.40
2019-01-20T06:42:34.690Z,29.10
2019-01-20T06:45:04.542Z,30.00
2019-01-20T06:47:32.618Z,30.80
2019-01-20T06:50:00.564Z,30.60
2019-01-20T06:52:30.238Z,30.60
2019-01-20T06:54:57.278Z,30.60
2019-01-20T06:57:25.836Z,30.30
2019-01-20T06:59:53.769Z,29.90
2019-01-20T07:02:21.782Z,30.50
2019-01-20T07:04:49.832Z,30.40
2019-01-20T07:07:17.738Z,30.30
2019-01-20T07:09:45.695Z,30.00
2019-01-20T07:12:13.930Z,29.80
2019-01-20T07:14:42.238Z,30.00
2019-01-20T07:17:12.945Z,29.80
2019-01-20T07:19:41.245Z,29.70
2019-01-20T07:22:09.326Z,29.30
2019-01-20T07:24:39.639Z,29.30
2019-01-20T07:27:07.574Z,29.00
2019-01-20T07:29:35.641Z,29.40
2019-01-20T07:32:05.270Z,29.30
2019-01-20T07:34:32.192Z,29.20
2019-01-20T07:37:00.234Z,29.20
2019-01-20T07:39:28.442Z,29.70
2019-01-20T07:41:56.354Z,29.20
2019-01-20T07:44:24.462Z,29.30
2019-01-20T07:46:52.379Z,29.20
2019-01-20T07:49:20.990Z,29.20
2019-01-20T07:51:49.658Z,29.60
2019-01-20T07:54:18.380Z,29.20
2019-01-20T07:56:47.306Z,29.30
2019-01-20T07:59:15.686Z,28.90
2019-01-20T08:01:44.162Z,29.20
2019-01-20T08:04:12.546Z,29.30
2019-01-20T08:06:40.998Z,29.50
2019-01-20T08:09:09.694Z,29.30
2019-01-20T08:11:38.178Z,28.90
2019-01-20T08:14:06.666Z,28.80
2019-01-20T08:16:35.092Z,28.90
2019-01-20T08:19:03.336Z,28.90
2019-01-20T08:21:31.894Z,29.10
2019-01-20T08:24:06.370Z,29.50
2019-01-20T08:26:33.902Z,29.90
2019-01-20T08:29:00.981Z,30.00
2019-01-20T08:31:28.878Z,29.70
2019-01-20T08:33:57.710Z,30.10
2019-01-20T08:36:26.412Z,30.50
2019-01-20T08:38:55.066Z,30.50
2019-01-20T08:41:23.350Z,31.30
2019-01-20T08:43:51.514Z,32.60
2019-01-20T08:46:47.126Z,33.50
2019-01-20T08:49:14.694Z,35.50
2019-01-20T08:51:42.635Z,39.60
2019-01-20T08:54:09.937Z,39.20
2019-01-20T08:56:37.476Z,40.90
2019-01-20T08:59:05.019Z,44.90
2019-01-20T09:01:32.959Z,46.30
2019-01-20T09:04:00.746Z,50.90
2019-01-20T09:06:28.382Z,57.30
2019-01-20T09:08:55.294Z,53.70
2019-01-20T09:11:23.722Z,51.40
2019-01-20T09:13:52.381Z,39.30
2019-01-20T09:16:21.159Z,28.70
2019-01-20T09:18:49.351Z,22.60
2019-01-20T09:21:20.265Z,19.20
2019-01-20T09:23:47.451Z,16.50
2019-01-20T09:26:16.297Z,15.20
2019-01-20T09:28:45.218Z,17.10
2019-01-20T09:31:13.754Z,18.80
2019-01-20T09:33:42.086Z,20.60
2019-01-20T09:36:10.595Z,22.90
2019-01-20T09:38:38.854Z,23.50
2019-01-20T09:41:06.821Z,25.00
2019-01-20T09:43:35.279Z,26.50
2019-01-20T09:46:04.109Z,26.50
2019-01-20T09:48:32.467Z,27.20
2019-01-20T09:51:01.017Z,27.80
2019-01-20T09:53:29.205Z,28.30
2019-01-20T09:55:57.786Z,28.70
2019-01-20T09:58:26.422Z,28.60
2019-01-20T10:00:55.338Z,28.80
2019-01-20T10:03:23.858Z,29.00
2019-01-20T10:05:52.571Z,29.70
2019-01-20T10:08:21.358Z,29.00
2019-01-20T10:10:49.902Z,29.30
2019-01-20T10:13:18.166Z,29.20
2019-01-20T10:15:46.335Z,28.80
2019-01-20T10:18:14.702Z,28.50
2019-01-20T10:20:43.462Z,27.90
2019-01-20T10:23:11.534Z,27.50
2019-01-20T10:25:40.243Z,27.10
2019-01-20T10:28:10.875Z,27.20
2019-01-20T10:30:39.526Z,27.60
2019-01-20T10:33:08.524Z,28.30
2019-01-20T10:35:46.019Z,27.90
2019-01-20T10:38:13.451Z,28.20
2019-01-20T10:40:41.887Z,28.40
2019-01-20T10:43:09.255Z,27.90
2019-01-20T10:45:38.315Z,27.70
2019-01-20T10:48:07.058Z,27.40
2019-01-20T10:50:36.451Z,27.00
2019-01-20T10:53:06.929Z,27.10
2019-01-20T10:55:34.559Z,26.90
2019-01-20T10:58:02.482Z,27.10
2019-01-20T11:00:32.170Z,26.60
2019-01-20T11:03:01.446Z,26.30
2019-01-20T11:05:31.593Z,26.30
2019-01-20T11:08:00.771Z,26.50
2019-01-20T11:10:28.910Z,26.20
2019-01-20T11:12:57.022Z,25.70
2019-01-20T11:15:25.844Z,25.10
2019-01-20T11:17:54.379Z,24.10
2019-01-20T11:20:22.769Z,24.00
2019-01-20T11:22:51.525Z,22.60
2019-01-20T11:25:22.334Z,22.80
2019-01-20T11:27:50.591Z,21.70
2019-01-20T11:30:19.450Z,20.80
2019-01-20T11:32:48.134Z,20.30
2019-01-20T11:35:17.933Z,18.90
2019-01-20T11:37:46.897Z,16.20
2019-01-20T11:40:15.588Z,17.40
2019-01-20T11:42:42.597Z,17.40
2019-01-20T11:45:15.495Z,15.90
2019-01-20T11:47:44.042Z,16.10
2019-01-20T11:50:12.377Z,15.60
2019-01-20T11:52:40.616Z,16.30
2019-01-20T11:55:10.133Z,16.40
2019-01-20T11:57:38.990Z,17.30
2019-01-20T12:00:11.866Z,17.40
2019-01-20T12:02:40.238Z,16.20
2019-01-20T12:05:09.998Z,15.00
2019-01-20T12:07:38.498Z,13.50
2019-01-20T12:10:08.378Z,13.80
2019-01-20T12:12:38.119Z,15.10
2019-01-20T12:15:09.074Z,14.90
2019-01-20T12:17:37.417Z,13.90
2019-01-20T12:20:09.412Z,15.10
2019-01-20T12:22:38.694Z,13.00
2019-01-20T12:25:10.718Z,14.60
2019-01-20T12:27:38.690Z,13.70
2019-01-20T12:30:09.879Z,15.20
2019-01-20T12:32:38.029Z,15.40
2019-01-20T12:35:06.272Z,10.80
2019-01-20T12:37:34.190Z,12.20
2019-01-20T12:40:02.714Z,11.70
2019-01-20T12:42:31.318Z,11.40
2019-01-20T12:44:59.246Z,9.60
2019-01-20T12:47:27.303Z,10.60
2019-01-20T12:49:55.246Z,9.10
2019-01-20T12:52:24.903Z,10.00
2019-01-20T12:54:51.859Z,9.90
2019-01-20T12:57:19.979Z,9.30
2019-01-20T12:59:48.087Z,10.80
2019-01-20T13:02:16.337Z,6.30
2019-01-20T13:04:44.306Z,8.30
2019-01-20T13:07:12.502Z,8.70
2019-01-20T13:09:43.201Z,9.30
2019-01-20T13:12:10.114Z,9.50
2019-01-20T13:14:39.069Z,10.10
2019-01-20T13:17:07.541Z,7.90
2019-01-20T13:19:35.470Z,7.80
2019-01-20T13:22:03.594Z,9.60
2019-01-20T13:24:31.698Z,8.00
2019-01-20T13:27:00.509Z,6.00
2019-01-20T13:29:30.562Z,8.60
2019-01-20T13:31:58.307Z,9.20
2019-01-20T13:34:26.215Z,9.60
2019-01-20T13:36:54.237Z,10.10
2019-01-20T13:39:22.266Z,11.00
2019-01-20T13:41:50.217Z,7.70
2019-01-20T13:44:18.215Z,6.30
2019-01-20T13:46:46.501Z,10.60
2019-01-20T13:49:19.342Z,13.40
2019-01-20T13:51:47.187Z,13.20
2019-01-20T13:54:16.674Z,16.50
2019-01-20T13:56:44.601Z,18.90
2019-01-20T13:59:11.764Z,14.90
2019-01-20T14:01:39.006Z,11.50
2019-01-20T14:04:07.499Z,11.60
2019-01-20T14:06:36.230Z,16.70
2019-01-20T14:09:06.362Z,12.80
2019-01-20T14:11:35.052Z,12.00
2019-01-20T14:14:03.549Z,15.00
2019-01-20T14:16:33.199Z,7.00
2019-01-20T14:19:01.402Z,13.10
2019-01-20T14:21:30.307Z,7.50
2019-01-20T14:23:58.090Z,8.30
2019-01-20T14:26:27.446Z,5.90
2019-01-20T14:28:55.394Z,11.70
2019-01-20T14:31:24.231Z,9.50
2019-01-20T14:33:52.415Z,3.70
2019-01-20T14:36:21.366Z,5.20
2019-01-20T14:38:56.666Z,6.00
2019-01-20T14:41:24.087Z,3.40
2019-01-20T14:43:51.646Z,4.70
2019-01-20T14:46:19.182Z,6.80
2019-01-20T14:48:51.278Z,5.00
2019-01-20T14:51:23.947Z,5.60
2019-01-20T14:53:51.245Z,4.80
2019-01-20T14:56:18.421Z,4.10
2019-01-20T14:58:45.890Z,3.30
2019-01-20T15:01:13.323Z,4.30
2019-01-20T15:03:46.385Z,4.90
2019-01-20T15:06:13.426Z,4.70
2019-01-20T15:08:40.805Z,1.50
2019-01-20T15:11:08.693Z,2.90
2019-01-20T15:13:35.839Z,3.80
2019-01-20T15:16:02.949Z,5.20
2019-01-20T15:18:30.130Z,4.40
2019-01-20T15:20:57.161Z,5.20
2019-01-20T15:23:24.282Z,3.20
2019-01-20T15:25:51.289Z,3.50
2019-01-20T15:28:19.327Z,4.30
2019-01-20T15:30:47.518Z,4.00
2019-01-20T15:33:16.978Z,4.90
2019-01-20T15:35:44.203Z,5.70
2019-01-20T15:38:11.498Z,6.50
2019-01-20T15:40:39.794Z,6.50
2019-01-20T15:43:08.346Z,6.80
2019-01-20T15:45:35.647Z,6.40
2019-01-20T15:48:04.254Z,6.40
2019-01-20T15:50:32.653Z,7.00
2019-01-20T15:53:01.916Z,7.40
2019-01-20T15:55:30.683Z,7.50
2019-01-20T15:57:58.759Z,6.70
2019-01-20T16:00:29.920Z,8.50
2019-01-20T16:02:57.535Z,8.10
2019-01-20T16:05:27.170Z,8.20
2019-01-20T16:08:11.956Z,9.70
2019-01-20T16:10:42.766Z,9.60
2019-01-20T16:13:10.641Z,9.30
2019-01-20T16:15:44.666Z,9.80
2019-01-20T16:18:14.352Z,9.70
2019-01-20T16:20:41.470Z,11.10
2019-01-20T16:23:09.647Z,10.20
2019-01-20T16:25:37.786Z,9.70
2019-01-20T16:28:10.314Z,9.70
2019-01-20T16:30:38.542Z,9.80
2019-01-20T16:33:05.978Z,9.50
2019-01-20T16:35:36.295Z,10.30
2019-01-20T16:38:05.087Z,10.60
2019-01-20T16:40:35.010Z,10.50
2019-01-20T16:43:02.458Z,11.40
2019-01-20T16:45:42.067Z,11.90
2019-01-20T16:48:08.008Z,11.60
2019-01-20T16:50:37.265Z,12.40
2019-01-20T16:53:04.984Z,11.90
2019-01-20T16:55:32.959Z,12.90
2019-01-20T16:58:00.506Z,12.80
2019-01-20T17:00:29.268Z,12.50
2019-01-20T17:03:03.286Z,11.60
2019-01-20T17:05:30.720Z,11.80
2019-01-20T17:07:58.123Z,11.20
2019-01-20T17:10:28.062Z,11.60
2019-01-20T17:12:55.401Z,13.30
2019-01-20T17:15:25.967Z,12.60
2019-01-20T17:17:53.383Z,13.70
2019-01-20T17:20:21.015Z,13.10
2019-01-20T17:22:48.540Z,11.40
2019-01-20T17:25:16.292Z,12.50
2019-01-20T17:27:49.371Z,13.00
2019-01-20T17:30:21.590Z,13.50
2019-01-20T17:32:49.773Z,13.90
2019-01-20T17:35:20.282Z,13.50
2019-01-20T17:37:53.672Z,14.60
2019-01-20T17:40:23.325Z,14.00
2019-01-20T17:42:50.690Z,13.60
2019-01-20T17:45:20.674Z,13.90
2019-01-20T17:47:49.912Z,13.40
2019-01-20T17:50:23.642Z,14.30
2019-01-20T17:52:53.026Z,14.70
2019-01-20T17:55:20.919Z,14.70
2019-01-20T17:57:51.199Z,14.70
2019-01-20T18:00:20.781Z,15.40
2019-01-20T18:02:48.315Z,14.60
2019-01-20T18:05:18.944Z,14.60
2019-01-20T18:07:47.038Z,14.30
2019-01-20T18:10:14.615Z,14.30
2019-01-20T18:12:41.785Z,14.30
2019-01-20T18:15:10.757Z,14.80
2019-01-20T18:17:38.726Z,14.50
2019-01-20T18:20:09.052Z,14.50
2019-01-20T18:22:36.139Z,14.50
2019-01-20T18:25:04.091Z,15.00
2019-01-20T18:27:31.451Z,14.40
2019-01-20T18:30:00.323Z,15.90
2019-01-20T18:32:28.647Z,15.70
2019-01-20T18:34:56.903Z,15.50
2019-01-20T18:37:25.323Z,15.90
2019-01-20T18:39:53.847Z,15.30
2019-01-20T18:42:22.608Z,15.00
2019-01-20T18:44:50.881Z,15.40
2019-01-20T18:47:19.510Z,15.00
2019-01-20T18:49:47.711Z,15.00
2019-01-20T18:52:16.250Z,15.80
2019-01-20T18:54:44.584Z,15.10
2019-01-20T18:57:13.007Z,15.80
2019-01-20T18:59:41.628Z,15.70
2019-01-20T19:02:09.992Z,15.80
2019-01-20T19:04:38.657Z,15.60
2019-01-20T19:07:06.610Z,15.00
2019-01-20T19:09:34.748Z,15.90
2019-01-20T19:12:04.602Z,15.80
2019-01-20T19:14:34.746Z,15.50
2019-01-20T19:17:01.989Z,15.80
2019-01-20T19:19:30.229Z,17.10
2019-01-20T19:21:59.075Z,17.20
2019-01-20T19:24:30.093Z,16.70
2019-01-20T19:26:57.825Z,16.30
2019-01-20T19:29:25.684Z,16.50
2019-01-20T19:31:55.671Z,16.70
2019-01-20T19:34:22.876Z,17.40
2019-01-20T19:36:50.094Z,17.90
2019-01-20T19:39:17.378Z,17.70
2019-01-20T19:41:46.410Z,17.50
2019-01-20T19:44:13.821Z,17.40
2019-01-20T19:46:42.574Z,17.50
2019-01-20T19:49:10.897Z,17.70
2019-01-20T19:51:39.017Z,17.60
2019-01-20T19:54:07.096Z,18.70
2019-01-20T19:56:35.178Z,18.10
2019-01-20T19:59:03.488Z,18.50
2019-01-20T20:01:31.420Z,17.30
2019-01-20T20:03:59.552Z,17.00
2019-01-20T20:06:27.663Z,17.30
2019-01-20T20:08:55.975Z,17.50
2019-01-20T20:11:25.966Z,17.80
2019-01-20T20:13:53.028Z,17.60
2019-01-20T20:16:23.528Z,18.60
2019-01-20T20:18:51.157Z,17.40
2019-01-20T20:21:19.559Z,17.10
2019-01-20T20:23:50.815Z,16.80
2019-01-20T20:26:17.830Z,17.40
2019-01-20T20:28:44.941Z,16.90
2019-01-20T20:31:14.462Z,17.20
2019-01-20T20:33:41.426Z,17.50
2019-01-20T20:36:15.550Z,17.80
2019-01-20T20:38:44.715Z,17.90
2019-01-20T20:41:11.758Z,17.00
2019-01-20T20:43:38.799Z,17.70
2019-01-20T20:46:06.075Z,18.20
2019-01-20T20:48:33.011Z,17.90
2019-01-20T20:51:00.222Z,18.00
2019-01-20T20:53:28.290Z,17.60
2019-01-20T20:55:55.344Z,17.40
2019-01-20T20:58:22.683Z,18.10
2019-01-20T21:00:52.691Z,18.10
2019-01-20T21:03:29.270Z,17.90
2019-01-20T21:05:57.180Z,17.70
2019-01-20T21:08:24.401Z,18.00
2019-01-20T21:10:55.131Z,18.10
2019-01-20T21:13:22.638Z,18.00
2019-01-20T21:15:50.949Z,18.70
2019-01-20T21:18:20.903Z,19.50
2019-01-20T21:20:48.226Z,19.20
2019-01-20T21:23:17.361Z,18.70
2019-01-20T21:25:45.653Z,19.00
2019-01-20T21:28:14.947Z,19.20
2019-01-20T21:30:44.510Z,18.70
2019-01-20T21:33:12.031Z,18.60
2019-01-20T21:35:39.897Z,18.90
2019-01-20T21:38:07.663Z,19.50
2019-01-20T21:40:36.154Z,19.20
2019-01-20T21:43:04.911Z,19.00
2019-01-20T21:45:33.162Z,19.50
2019-01-20T21:48:01.363Z,19.10
2019-01-20T21:50:30.133Z,19.00
2019-01-20T21:52:59.242Z,20.20
2019-01-20T21:55:26.465Z,20.50
2019-01-20T21:57:54.683Z,20.20
2019-01-20T22:00:24.331Z,19.90
2019-01-20T22:02:52.432Z,19.30
2019-01-20T22:05:21.442Z,19.60
2019-01-20T22:07:49.874Z,19.60
2019-01-20T22:10:18.746Z,19.00
2019-01-20T22:12:47.200Z,19.10
2019-01-20T22:15:15.094Z,20.30
2019-01-20T22:17:43.972Z,19.70
2019-01-20T22:20:14.137Z,19.50
2019-01-20T22:22:42.458Z,19.10
2019-01-20T22:25:11.485Z,19.90
2019-01-20T22:27:40.012Z,19.50
2019-01-20T22:30:13.947Z,19.20
2019-01-20T22:32:41.549Z,19.30
2019-01-20T22:35:09.443Z,19.90
2019-01-20T22:37:37.940Z,19.20
2019-01-20T22:40:07.471Z,19.20
2019-01-20T22:42:34.527Z,18.70
2019-01-20T22:45:02.743Z,18.60
2019-01-20T22:47:32.358Z,18.70
2019-01-20T22:50:00.574Z,18.50
2019-01-20T22:52:28.892Z,18.30
2019-01-20T22:54:58.122Z,18.50
2019-01-20T22:57:26.990Z,20.50
2019-01-20T22:59:55.326Z,19.60
2019-01-20T23:02:24.006Z,18.80
2019-01-20T23:04:52.738Z,19.00
2019-01-20T23:07:22.211Z,18.70
2019-01-20T23:09:49.503Z,19.00
2019-01-20T23:12:17.279Z,19.40
2019-01-20T23:14:45.626Z,19.10
2019-01-20T23:17:14.115Z,18.80
2019-01-20T23:19:41.702Z,19.10
2019-01-20T23:22:10.502Z,20.40
2019-01-20T23:24:42.210Z,19.60
2019-01-20T23:27:09.526Z,19.00
2019-01-20T23:29:36.777Z,18.50
2019-01-20T23:32:04.264Z,18.30
2019-01-20T23:34:32.619Z,20.00
2019-01-20T23:37:01.127Z,19.50
2019-01-20T23:39:29.764Z,19.30
2019-01-20T23:41:58.594Z,19.30
2019-01-20T23:44:26.783Z,19.70
2019-01-20T23:46:55.370Z,19.60
2019-01-20T23:49:24.235Z,19.80
2019-01-20T23:51:52.800Z,19.30
2019-01-20T23:54:21.312Z,19.70
2019-01-20T23:56:50.012Z,19.20
2019-01-20T23:59:18.284Z,19.10
